Flight Briefing for CPX411

Departure Arrival
Minneapolis-St Paul International Airport (KMSP)
Click to view FAA NOTAMS
Chicago/Rockford International Airport (KRFD)
Click to view FAA NOTAMS
Departure Time Arrival Time
N/A N/A
Aircraft Distance
B757-200SF 278nm
Departure METAR Arrival METAR
KMSP 271053Z 02004KT 10SM -RA OVC090 14/11 A2992 RMK AO2 RAB35 SLP130 P0000 T01440106 KRFD 271054Z 09007KT 10SM BKN220 13/09 A3002 RMK AO2 SLP161 T01330089 $
Suggested Route
ZMBRO7 ODI J30 COTON RFD


View recent IFR Routes data
Notes



Charts and Procedures

Charts for KMSP
No chart available
Charts for KRFD
No chart available

Windy.com Weather Map